sensor_id;sensor_type;location;lat;lon;timestamp;P1;durP1;ratioP1;P2;durP2;ratioP2
63193;SDS011;49289;51.670;5.624;2022-12-29T00:00:54;0.30;;;0.30;;
63193;SDS011;49289;51.670;5.624;2022-12-29T00:02:43;0.30;;;0.30;;
63193;SDS011;49289;51.670;5.624;2022-12-29T00:04:30;0.30;;;0.30;;
63193;SDS011;49289;51.670;5.624;2022-12-29T00:06:18;0.30;;;0.30;;
63193;SDS011;49289;51.670;5.624;2022-12-29T00:08:06;0.30;;;0.30;;
63193;SDS011;49289;51.670;5.624;2022-12-29T00:09:54;0.30;;;0.30;;
63193;SDS011;49289;51.670;5.624;2022-12-29T00:11:43;0.30;;;0.30;;
63193;SDS011;49289;51.670;5.624;2022-12-29T00:13:31;0.30;;;0.30;;
63193;SDS011;49289;51.670;5.624;2022-12-29T00:15:19;0.30;;;0.30;;
63193;SDS011;49289;51.670;5.624;2022-12-29T00:17:06;0.30;;;0.30;;
63193;SDS011;49289;51.670;5.624;2022-12-29T00:18:53;0.30;;;0.30;;
63193;SDS011;49289;51.670;5.624;2022-12-29T00:20:40;0.30;;;0.30;;
63193;SDS011;49289;51.670;5.624;2022-12-29T00:22:27;0.30;;;0.30;;
63193;SDS011;49289;51.670;5.624;2022-12-29T00:24:15;0.20;;;0.20;;
63193;SDS011;49289;51.670;5.624;2022-12-29T00:26:02;0.20;;;0.20;;
63193;SDS011;49289;51.670;5.624;2022-12-29T00:27:51;0.10;;;0.10;;
63193;SDS011;49289;51.670;5.624;2022-12-29T00:29:39;0.10;;;0.10;;
63193;SDS011;49289;51.670;5.624;2022-12-29T00:31:27;0.20;;;0.20;;
63193;SDS011;49289;51.670;5.624;2022-12-29T00:33:15;0.20;;;0.20;;
63193;SDS011;49289;51.670;5.624;2022-12-29T00:35:02;0.20;;;0.20;;
63193;SDS011;49289;51.670;5.624;2022-12-29T00:36:51;0.20;;;0.20;;
63193;SDS011;49289;51.670;5.624;2022-12-29T00:38:39;0.30;;;0.30;;
63193;SDS011;49289;51.670;5.624;2022-12-29T00:40:25;0.20;;;0.20;;
63193;SDS011;49289;51.670;5.624;2022-12-29T00:42:12;0.30;;;0.30;;
63193;SDS011;49289;51.670;5.624;2022-12-29T00:44:00;0.20;;;0.20;;
63193;SDS011;49289;51.670;5.624;2022-12-29T00:45:48;0.30;;;0.30;;
63193;SDS011;49289;51.670;5.624;2022-12-29T00:47:37;0.50;;;0.50;;
63193;SDS011;49289;51.670;5.624;2022-12-29T00:49:24;0.40;;;0.40;;
63193;SDS011;49289;51.670;5.624;2022-12-29T00:51:11;0.30;;;0.30;;
63193;SDS011;49289;51.670;5.624;2022-12-29T00:52:58;0.30;;;0.30;;
63193;SDS011;49289;51.670;5.624;2022-12-29T00:54:45;0.40;;;0.40;;
63193;SDS011;49289;51.670;5.624;2022-12-29T00:56:32;0.50;;;0.50;;
63193;SDS011;49289;51.670;5.624;2022-12-29T00:58:19;0.30;;;0.30;;
63193;SDS011;49289;51.670;5.624;2022-12-29T01:00:07;0.30;;;0.30;;
63193;SDS011;49289;51.670;5.624;2022-12-29T01:01:56;0.20;;;0.20;;
63193;SDS011;49289;51.670;5.624;2022-12-29T01:03:43;0.20;;;0.20;;
63193;SDS011;49289;51.670;5.624;2022-12-29T01:05:30;0.20;;;0.20;;
63193;SDS011;49289;51.670;5.624;2022-12-29T01:07:17;0.30;;;0.30;;
63193;SDS011;49289;51.670;5.624;2022-12-29T01:09:05;0.30;;;0.30;;
63193;SDS011;49289;51.670;5.624;2022-12-29T01:11:03;0.20;;;0.20;;
63193;SDS011;49289;51.670;5.624;2022-12-29T01:12:51;0.20;;;0.20;;
63193;SDS011;49289;51.670;5.624;2022-12-29T01:14:39;0.30;;;0.30;;
63193;SDS011;49289;51.670;5.624;2022-12-29T01:16:27;0.30;;;0.30;;
63193;SDS011;49289;51.670;5.624;2022-12-29T01:18:14;0.30;;;0.30;;
63193;SDS011;49289;51.670;5.624;2022-12-29T01:20:01;0.30;;;0.30;;
63193;SDS011;49289;51.670;5.624;2022-12-29T01:21:50;0.30;;;0.30;;
63193;SDS011;49289;51.670;5.624;2022-12-29T01:23:37;0.30;;;0.30;;
63193;SDS011;49289;51.670;5.624;2022-12-29T01:25:24;0.30;;;0.30;;
63193;SDS011;49289;51.670;5.624;2022-12-29T01:27:11;0.50;;;0.50;;
63193;SDS011;49289;51.670;5.624;2022-12-29T01:28:58;0.30;;;0.30;;
63193;SDS011;49289;51.670;5.624;2022-12-29T01:30:46;0.30;;;0.30;;
63193;SDS011;49289;51.670;5.624;2022-12-29T01:32:34;0.70;;;0.70;;
63193;SDS011;49289;51.670;5.624;2022-12-29T01:34:24;0.50;;;0.50;;
63193;SDS011;49289;51.670;5.624;2022-12-29T01:36:13;0.60;;;0.60;;
63193;SDS011;49289;51.670;5.624;2022-12-29T01:38:00;0.30;;;0.30;;
63193;SDS011;49289;51.670;5.624;2022-12-29T01:39:48;0.40;;;0.40;;
63193;SDS011;49289;51.670;5.624;2022-12-29T01:41:37;0.30;;;0.30;;
63193;SDS011;49289;51.670;5.624;2022-12-29T01:43:37;0.30;;;0.30;;
63193;SDS011;49289;51.670;5.624;2022-12-29T01:45:23;0.40;;;0.40;;
63193;SDS011;49289;51.670;5.624;2022-12-29T01:47:10;0.30;;;0.30;;
63193;SDS011;49289;51.670;5.624;2022-12-29T01:48:59;0.30;;;0.30;;
63193;SDS011;49289;51.670;5.624;2022-12-29T01:50:50;0.40;;;0.40;;
63193;SDS011;49289;51.670;5.624;2022-12-29T01:52:37;0.60;;;0.60;;
63193;SDS011;49289;51.670;5.624;2022-12-29T01:54:26;0.20;;;0.20;;
63193;SDS011;49289;51.670;5.624;2022-12-29T01:56:14;0.70;;;0.40;;
63193;SDS011;49289;51.670;5.624;2022-12-29T01:58:01;0.20;;;0.20;;
63193;SDS011;49289;51.670;5.624;2022-12-29T01:59:48;0.30;;;0.30;;
63193;SDS011;49289;51.670;5.624;2022-12-29T02:01:35;0.30;;;0.30;;
63193;SDS011;49289;51.670;5.624;2022-12-29T02:03:24;0.30;;;0.30;;
63193;SDS011;49289;51.670;5.624;2022-12-29T02:05:14;0.20;;;0.20;;
63193;SDS011;49289;51.670;5.624;2022-12-29T02:07:01;0.20;;;0.20;;
63193;SDS011;49289;51.670;5.624;2022-12-29T02:08:47;0.20;;;0.20;;
63193;SDS011;49289;51.670;5.624;2022-12-29T02:10:36;0.20;;;0.20;;
63193;SDS011;49289;51.670;5.624;2022-12-29T02:12:24;0.30;;;0.30;;
63193;SDS011;49289;51.670;5.624;2022-12-29T02:14:13;0.30;;;0.30;;
63193;SDS011;49289;51.670;5.624;2022-12-29T02:16:02;0.50;;;0.50;;
63193;SDS011;49289;51.670;5.624;2022-12-29T02:17:56;0.30;;;0.30;;
63193;SDS011;49289;51.670;5.624;2022-12-29T02:19:53;0.20;;;0.20;;
63193;SDS011;49289;51.670;5.624;2022-12-29T02:21:52;0.20;;;0.20;;
63193;SDS011;49289;51.670;5.624;2022-12-29T02:23:53;0.30;;;0.30;;
63193;SDS011;49289;51.670;5.624;2022-12-29T02:25:55;0.30;;;0.30;;
63193;SDS011;49289;51.670;5.624;2022-12-29T02:27:56;0.40;;;0.40;;
63193;SDS011;49289;51.670;5.624;2022-12-29T02:32:02;0.30;;;0.30;;
63193;SDS011;49289;51.670;5.624;2022-12-29T02:33:53;1.00;;;1.00;;
63193;SDS011;49289;51.670;5.624;2022-12-29T02:35:42;0.30;;;0.30;;
63193;SDS011;49289;51.670;5.624;2022-12-29T02:37:30;0.30;;;0.30;;
63193;SDS011;49289;51.670;5.624;2022-12-29T02:39:20;0.30;;;0.30;;
63193;SDS011;49289;51.670;5.624;2022-12-29T02:41:07;0.30;;;0.30;;
63193;SDS011;49289;51.670;5.624;2022-12-29T02:42:55;0.30;;;0.30;;
63193;SDS011;49289;51.670;5.624;2022-12-29T02:44:45;0.30;;;0.30;;
63193;SDS011;49289;51.670;5.624;2022-12-29T02:46:33;0.40;;;0.40;;
63193;SDS011;49289;51.670;5.624;2022-12-29T02:48:22;0.30;;;0.30;;
63193;SDS011;49289;51.670;5.624;2022-12-29T02:50:11;0.30;;;0.30;;
63193;SDS011;49289;51.670;5.624;2022-12-29T02:51:58;0.30;;;0.30;;
63193;SDS011;49289;51.670;5.624;2022-12-29T02:53:45;0.30;;;0.30;;
63193;SDS011;49289;51.670;5.624;2022-12-29T02:55:34;0.40;;;0.40;;
63193;SDS011;49289;51.670;5.624;2022-12-29T02:57:32;0.30;;;0.30;;
63193;SDS011;49289;51.670;5.624;2022-12-29T02:59:18;0.20;;;0.20;;
63193;SDS011;49289;51.670;5.624;2022-12-29T03:01:11;0.20;;;0.20;;
63193;SDS011;49289;51.670;5.624;2022-12-29T03:03:14;0.20;;;0.20;;
63193;SDS011;49289;51.670;5.624;2022-12-29T03:05:11;0.10;;;0.10;;
63193;SDS011;49289;51.670;5.624;2022-12-29T03:07:00;0.20;;;0.20;;
63193;SDS011;49289;51.670;5.624;2022-12-29T03:08:49;0.20;;;0.20;;
63193;SDS011;49289;51.670;5.624;2022-12-29T03:10:39;0.50;;;0.50;;
63193;SDS011;49289;51.670;5.624;2022-12-29T03:12:28;0.30;;;0.30;;
63193;SDS011;49289;51.670;5.624;2022-12-29T03:14:17;0.30;;;0.30;;
63193;SDS011;49289;51.670;5.624;2022-12-29T03:16:05;0.30;;;0.30;;
63193;SDS011;49289;51.670;5.624;2022-12-29T03:17:54;0.30;;;0.30;;
63193;SDS011;49289;51.670;5.624;2022-12-29T03:19:44;0.30;;;0.30;;
63193;SDS011;49289;51.670;5.624;2022-12-29T03:21:30;0.30;;;0.30;;
63193;SDS011;49289;51.670;5.624;2022-12-29T03:23:18;0.30;;;0.30;;
63193;SDS011;49289;51.670;5.624;2022-12-29T03:25:08;0.40;;;0.40;;
63193;SDS011;49289;51.670;5.624;2022-12-29T03:26:55;0.40;;;0.40;;
63193;SDS011;49289;51.670;5.624;2022-12-29T03:28:42;0.40;;;0.40;;
63193;SDS011;49289;51.670;5.624;2022-12-29T03:30:28;0.60;;;0.60;;
63193;SDS011;49289;51.670;5.624;2022-12-29T03:32:15;0.40;;;0.40;;
63193;SDS011;49289;51.670;5.624;2022-12-29T03:34:03;0.30;;;0.30;;
63193;SDS011;49289;51.670;5.624;2022-12-29T03:35:52;0.30;;;0.30;;
63193;SDS011;49289;51.670;5.624;2022-12-29T03:37:41;0.40;;;0.40;;
63193;SDS011;49289;51.670;5.624;2022-12-29T03:39:27;0.30;;;0.30;;
63193;SDS011;49289;51.670;5.624;2022-12-29T03:41:15;0.40;;;0.40;;
63193;SDS011;49289;51.670;5.624;2022-12-29T03:43:03;0.30;;;0.30;;
63193;SDS011;49289;51.670;5.624;2022-12-29T03:44:53;0.30;;;0.30;;
63193;SDS011;49289;51.670;5.624;2022-12-29T03:46:38;0.40;;;0.40;;
63193;SDS011;49289;51.670;5.624;2022-12-29T03:48:27;0.40;;;0.40;;
63193;SDS011;49289;51.670;5.624;2022-12-29T03:50:16;0.30;;;0.30;;
63193;SDS011;49289;51.670;5.624;2022-12-29T03:52:06;0.30;;;0.30;;
63193;SDS011;49289;51.670;5.624;2022-12-29T03:53:55;0.60;;;0.60;;
63193;SDS011;49289;51.670;5.624;2022-12-29T03:55:43;0.30;;;0.30;;
63193;SDS011;49289;51.670;5.624;2022-12-29T03:57:31;0.30;;;0.30;;
63193;SDS011;49289;51.670;5.624;2022-12-29T03:59:18;0.30;;;0.30;;
63193;SDS011;49289;51.670;5.624;2022-12-29T04:01:05;0.30;;;0.30;;
63193;SDS011;49289;51.670;5.624;2022-12-29T04:02:52;0.40;;;0.40;;
63193;SDS011;49289;51.670;5.624;2022-12-29T04:04:39;0.40;;;0.40;;
63193;SDS011;49289;51.670;5.624;2022-12-29T04:06:26;0.30;;;0.30;;
63193;SDS011;49289;51.670;5.624;2022-12-29T04:08:14;0.30;;;0.30;;
63193;SDS011;49289;51.670;5.624;2022-12-29T04:10:03;0.30;;;0.30;;
63193;SDS011;49289;51.670;5.624;2022-12-29T04:11:50;0.40;;;0.40;;
63193;SDS011;49289;51.670;5.624;2022-12-29T04:13:38;0.30;;;0.30;;
63193;SDS011;49289;51.670;5.624;2022-12-29T04:15:27;0.40;;;0.40;;
63193;SDS011;49289;51.670;5.624;2022-12-29T04:17:15;0.70;;;0.70;;
63193;SDS011;49289;51.670;5.624;2022-12-29T04:19:03;0.30;;;0.30;;
63193;SDS011;49289;51.670;5.624;2022-12-29T04:20:51;0.40;;;0.40;;
63193;SDS011;49289;51.670;5.624;2022-12-29T04:22:38;0.40;;;0.40;;
63193;SDS011;49289;51.670;5.624;2022-12-29T04:24:25;0.30;;;0.30;;
63193;SDS011;49289;51.670;5.624;2022-12-29T04:26:12;0.40;;;0.40;;
63193;SDS011;49289;51.670;5.624;2022-12-29T04:28:00;0.30;;;0.30;;
63193;SDS011;49289;51.670;5.624;2022-12-29T04:29:49;0.30;;;0.30;;
63193;SDS011;49289;51.670;5.624;2022-12-29T04:31:37;0.30;;;0.30;;
63193;SDS011;49289;51.670;5.624;2022-12-29T04:33:25;0.30;;;0.30;;
63193;SDS011;49289;51.670;5.624;2022-12-29T04:35:13;0.20;;;0.20;;
63193;SDS011;49289;51.670;5.624;2022-12-29T04:37:01;0.20;;;0.20;;
63193;SDS011;49289;51.670;5.624;2022-12-29T04:38:49;0.20;;;0.20;;
63193;SDS011;49289;51.670;5.624;2022-12-29T04:40:37;0.30;;;0.30;;
63193;SDS011;49289;51.670;5.624;2022-12-29T04:42:24;0.30;;;0.30;;
63193;SDS011;49289;51.670;5.624;2022-12-29T04:44:11;0.30;;;0.30;;
63193;SDS011;49289;51.670;5.624;2022-12-29T04:45:58;0.40;;;0.40;;
63193;SDS011;49289;51.670;5.624;2022-12-29T04:47:45;0.30;;;0.30;;
63193;SDS011;49289;51.670;5.624;2022-12-29T04:49:33;0.40;;;0.40;;
63193;SDS011;49289;51.670;5.624;2022-12-29T04:51:21;0.30;;;0.30;;
63193;SDS011;49289;51.670;5.624;2022-12-29T04:53:10;0.30;;;0.30;;
63193;SDS011;49289;51.670;5.624;2022-12-29T04:54:58;0.30;;;0.30;;
63193;SDS011;49289;51.670;5.624;2022-12-29T04:56:45;0.30;;;0.30;;
63193;SDS011;49289;51.670;5.624;2022-12-29T04:58:32;0.20;;;0.20;;
63193;SDS011;49289;51.670;5.624;2022-12-29T05:00:20;0.20;;;0.20;;
63193;SDS011;49289;51.670;5.624;2022-12-29T05:02:08;0.20;;;0.20;;
63193;SDS011;49289;51.670;5.624;2022-12-29T05:03:56;0.30;;;0.30;;
63193;SDS011;49289;51.670;5.624;2022-12-29T05:05:44;0.20;;;0.20;;
63193;SDS011;49289;51.670;5.624;2022-12-29T05:07:34;0.30;;;0.30;;
63193;SDS011;49289;51.670;5.624;2022-12-29T05:09:21;0.30;;;0.30;;
63193;SDS011;49289;51.670;5.624;2022-12-29T05:11:09;0.30;;;0.30;;
63193;SDS011;49289;51.670;5.624;2022-12-29T05:12:58;0.40;;;0.40;;
63193;SDS011;49289;51.670;5.624;2022-12-29T05:14:46;0.40;;;0.40;;
63193;SDS011;49289;51.670;5.624;2022-12-29T05:16:34;0.20;;;0.20;;
63193;SDS011;49289;51.670;5.624;2022-12-29T05:18:22;0.20;;;0.20;;
63193;SDS011;49289;51.670;5.624;2022-12-29T05:20:10;0.30;;;0.30;;
63193;SDS011;49289;51.670;5.624;2022-12-29T05:21:57;0.10;;;0.10;;
63193;SDS011;49289;51.670;5.624;2022-12-29T05:23:44;0.20;;;0.20;;
63193;SDS011;49289;51.670;5.624;2022-12-29T05:25:31;0.20;;;0.20;;
63193;SDS011;49289;51.670;5.624;2022-12-29T05:27:18;0.20;;;0.20;;
63193;SDS011;49289;51.670;5.624;2022-12-29T05:29:06;0.20;;;0.20;;
63193;SDS011;49289;51.670;5.624;2022-12-29T05:30:55;0.30;;;0.30;;
63193;SDS011;49289;51.670;5.624;2022-12-29T05:32:43;0.30;;;0.30;;
63193;SDS011;49289;51.670;5.624;2022-12-29T05:34:31;0.20;;;0.20;;
63193;SDS011;49289;51.670;5.624;2022-12-29T05:36:19;0.30;;;0.30;;
63193;SDS011;49289;51.670;5.624;2022-12-29T05:38:07;0.20;;;0.20;;
63193;SDS011;49289;51.670;5.624;2022-12-29T05:39:54;0.10;;;0.10;;
63193;SDS011;49289;51.670;5.624;2022-12-29T05:41:41;0.10;;;0.10;;
63193;SDS011;49289;51.670;5.624;2022-12-29T05:43:28;0.20;;;0.20;;
63193;SDS011;49289;51.670;5.624;2022-12-29T05:45:15;0.30;;;0.30;;
63193;SDS011;49289;51.670;5.624;2022-12-29T05:47:04;0.20;;;0.20;;
63193;SDS011;49289;51.670;5.624;2022-12-29T05:48:51;0.20;;;0.20;;
63193;SDS011;49289;51.670;5.624;2022-12-29T05:50:40;0.20;;;0.20;;
63193;SDS011;49289;51.670;5.624;2022-12-29T05:52:28;0.20;;;0.20;;
63193;SDS011;49289;51.670;5.624;2022-12-29T05:54:16;0.20;;;0.20;;
63193;SDS011;49289;51.670;5.624;2022-12-29T05:56:03;0.20;;;0.20;;
63193;SDS011;49289;51.670;5.624;2022-12-29T05:57:51;0.20;;;0.20;;
63193;SDS011;49289;51.670;5.624;2022-12-29T05:59:40;0.30;;;0.30;;
63193;SDS011;49289;51.670;5.624;2022-12-29T06:01:28;0.20;;;0.20;;
63193;SDS011;49289;51.670;5.624;2022-12-29T06:03:15;0.20;;;0.20;;
63193;SDS011;49289;51.670;5.624;2022-12-29T06:05:02;0.20;;;0.20;;
63193;SDS011;49289;51.670;5.624;2022-12-29T06:06:50;0.10;;;0.10;;
63193;SDS011;49289;51.670;5.624;2022-12-29T06:08:37;0.10;;;0.10;;
63193;SDS011;49289;51.670;5.624;2022-12-29T06:10:24;1.60;;;1.50;;
63193;SDS011;49289;51.670;5.624;2022-12-29T06:12:12;0.10;;;0.10;;
63193;SDS011;49289;51.670;5.624;2022-12-29T06:14:00;0.20;;;0.20;;
63193;SDS011;49289;51.670;5.624;2022-12-29T06:15:49;0.30;;;0.30;;
63193;SDS011;49289;51.670;5.624;2022-12-29T06:17:37;0.20;;;0.20;;
63193;SDS011;49289;51.670;5.624;2022-12-29T06:19:25;0.30;;;0.30;;
63193;SDS011;49289;51.670;5.624;2022-12-29T06:21:12;0.30;;;0.30;;
63193;SDS011;49289;51.670;5.624;2022-12-29T06:22:59;0.30;;;0.30;;
63193;SDS011;49289;51.670;5.624;2022-12-29T06:24:46;0.20;;;0.20;;
63193;SDS011;49289;51.670;5.624;2022-12-29T06:26:33;0.30;;;0.30;;
63193;SDS011;49289;51.670;5.624;2022-12-29T06:28:21;0.30;;;0.30;;
63193;SDS011;49289;51.670;5.624;2022-12-29T06:30:10;0.20;;;0.20;;
63193;SDS011;49289;51.670;5.624;2022-12-29T06:31:58;0.20;;;0.20;;
63193;SDS011;49289;51.670;5.624;2022-12-29T06:33:46;0.20;;;0.20;;
63193;SDS011;49289;51.670;5.624;2022-12-29T06:35:35;0.30;;;0.30;;
63193;SDS011;49289;51.670;5.624;2022-12-29T06:37:23;0.20;;;0.20;;
63193;SDS011;49289;51.670;5.624;2022-12-29T06:39:11;0.20;;;0.20;;
63193;SDS011;49289;51.670;5.624;2022-12-29T06:41:00;0.20;;;0.20;;
63193;SDS011;49289;51.670;5.624;2022-12-29T06:42:47;0.20;;;0.20;;
63193;SDS011;49289;51.670;5.624;2022-12-29T06:44:34;0.30;;;0.30;;
63193;SDS011;49289;51.670;5.624;2022-12-29T06:46:21;0.20;;;0.20;;
63193;SDS011;49289;51.670;5.624;2022-12-29T06:48:08;0.30;;;0.30;;
63193;SDS011;49289;51.670;5.624;2022-12-29T06:49:56;0.20;;;0.20;;
63193;SDS011;49289;51.670;5.624;2022-12-29T06:51:45;0.30;;;0.30;;
63193;SDS011;49289;51.670;5.624;2022-12-29T06:53:33;0.30;;;0.30;;
63193;SDS011;49289;51.670;5.624;2022-12-29T06:55:20;1.00;;;1.00;;
63193;SDS011;49289;51.670;5.624;2022-12-29T06:57:07;0.30;;;0.30;;
63193;SDS011;49289;51.670;5.624;2022-12-29T06:58:54;0.30;;;0.30;;
63193;SDS011;49289;51.670;5.624;2022-12-29T07:00:42;0.30;;;0.30;;
63193;SDS011;49289;51.670;5.624;2022-12-29T07:02:32;0.30;;;0.30;;
63193;SDS011;49289;51.670;5.624;2022-12-29T07:04:20;0.30;;;0.30;;
63193;SDS011;49289;51.670;5.624;2022-12-29T07:06:09;0.30;;;0.30;;
63193;SDS011;49289;51.670;5.624;2022-12-29T07:07:57;0.40;;;0.40;;
63193;SDS011;49289;51.670;5.624;2022-12-29T07:09:44;0.20;;;0.20;;
63193;SDS011;49289;51.670;5.624;2022-12-29T07:11:32;0.20;;;0.20;;
63193;SDS011;49289;51.670;5.624;2022-12-29T07:13:20;0.10;;;0.10;;
63193;SDS011;49289;51.670;5.624;2022-12-29T07:15:09;0.20;;;0.20;;
63193;SDS011;49289;51.670;5.624;2022-12-29T07:16:56;0.20;;;0.20;;
63193;SDS011;49289;51.670;5.624;2022-12-29T07:18:44;0.20;;;0.20;;
63193;SDS011;49289;51.670;5.624;2022-12-29T07:20:32;0.20;;;0.20;;
63193;SDS011;49289;51.670;5.624;2022-12-29T07:22:20;0.20;;;0.20;;
63193;SDS011;49289;51.670;5.624;2022-12-29T07:24:09;0.30;;;0.30;;
63193;SDS011;49289;51.670;5.624;2022-12-29T07:26:04;0.30;;;0.30;;
63193;SDS011;49289;51.670;5.624;2022-12-29T07:27:52;0.30;;;0.30;;
63193;SDS011;49289;51.670;5.624;2022-12-29T07:29:39;0.30;;;0.30;;
63193;SDS011;49289;51.670;5.624;2022-12-29T07:31:26;0.20;;;0.20;;
63193;SDS011;49289;51.670;5.624;2022-12-29T07:33:13;0.20;;;0.20;;
63193;SDS011;49289;51.670;5.624;2022-12-29T07:35:00;0.30;;;0.30;;
63193;SDS011;49289;51.670;5.624;2022-12-29T07:36:48;0.40;;;0.40;;
63193;SDS011;49289;51.670;5.624;2022-12-29T07:38:35;0.40;;;0.40;;
63193;SDS011;49289;51.670;5.624;2022-12-29T07:40:23;0.30;;;0.30;;
63193;SDS011;49289;51.670;5.624;2022-12-29T07:42:10;0.30;;;0.30;;
63193;SDS011;49289;51.670;5.624;2022-12-29T07:43:59;0.30;;;0.30;;
63193;SDS011;49289;51.670;5.624;2022-12-29T07:45:47;0.40;;;0.40;;
63193;SDS011;49289;51.670;5.624;2022-12-29T07:47:35;0.30;;;0.30;;
63193;SDS011;49289;51.670;5.624;2022-12-29T07:49:23;0.40;;;0.40;;
63193;SDS011;49289;51.670;5.624;2022-12-29T07:51:10;0.30;;;0.30;;
63193;SDS011;49289;51.670;5.624;2022-12-29T07:52:59;0.30;;;0.30;;
63193;SDS011;49289;51.670;5.624;2022-12-29T07:54:47;0.30;;;0.30;;
63193;SDS011;49289;51.670;5.624;2022-12-29T07:56:35;0.30;;;0.30;;
63193;SDS011;49289;51.670;5.624;2022-12-29T07:58:23;0.20;;;0.20;;
63193;SDS011;49289;51.670;5.624;2022-12-29T08:00:13;0.10;;;0.10;;
63193;SDS011;49289;51.670;5.624;2022-12-29T08:02:01;0.20;;;0.20;;
63193;SDS011;49289;51.670;5.624;2022-12-29T08:03:49;0.20;;;0.20;;
63193;SDS011;49289;51.670;5.624;2022-12-29T08:05:37;0.30;;;0.30;;
63193;SDS011;49289;51.670;5.624;2022-12-29T08:07:26;0.30;;;0.30;;
63193;SDS011;49289;51.670;5.624;2022-12-29T08:09:14;0.30;;;0.30;;
63193;SDS011;49289;51.670;5.624;2022-12-29T08:11:02;0.30;;;0.30;;
63193;SDS011;49289;51.670;5.624;2022-12-29T08:12:51;0.50;;;0.50;;
63193;SDS011;49289;51.670;5.624;2022-12-29T08:14:39;0.30;;;0.30;;
63193;SDS011;49289;51.670;5.624;2022-12-29T08:16:26;0.40;;;0.40;;
63193;SDS011;49289;51.670;5.624;2022-12-29T08:18:14;0.40;;;0.40;;
63193;SDS011;49289;51.670;5.624;2022-12-29T08:20:03;7.90;;;1.70;;
63193;SDS011;49289;51.670;5.624;2022-12-29T08:21:50;7.80;;;1.50;;
63193;SDS011;49289;51.670;5.624;2022-12-29T08:23:39;9.20;;;1.80;;
63193;SDS011;49289;51.670;5.624;2022-12-29T08:25:26;7.00;;;1.30;;
63193;SDS011;49289;51.670;5.624;2022-12-29T08:27:13;5.90;;;1.70;;
63193;SDS011;49289;51.670;5.624;2022-12-29T08:29:00;6.70;;;1.40;;
63193;SDS011;49289;51.670;5.624;2022-12-29T08:30:32;8.70;;;1.70;;
63193;SDS011;49289;51.670;5.624;2022-12-29T08:32:19;11.10;;;1.70;;
63193;SDS011;49289;51.670;5.624;2022-12-29T08:34:07;8.30;;;1.70;;
63193;SDS011;49289;51.670;5.624;2022-12-29T08:35:56;6.10;;;1.60;;
63193;SDS011;49289;51.670;5.624;2022-12-29T08:37:46;6.00;;;1.70;;
63193;SDS011;49289;51.670;5.624;2022-12-29T08:39:31;8.60;;;1.60;;
63193;SDS011;49289;51.670;5.624;2022-12-29T08:41:18;7.60;;;1.50;;
63193;SDS011;49289;51.670;5.624;2022-12-29T08:43:05;8.40;;;1.90;;
63193;SDS011;49289;51.670;5.624;2022-12-29T08:44:54;5.80;;;1.70;;
63193;SDS011;49289;51.670;5.624;2022-12-29T08:46:43;6.30;;;1.40;;
63193;SDS011;49289;51.670;5.624;2022-12-29T08:48:30;7.20;;;1.60;;
63193;SDS011;49289;51.670;5.624;2022-12-29T08:50:18;7.80;;;1.80;;
63193;SDS011;49289;51.670;5.624;2022-12-29T08:52:07;8.00;;;2.00;;
63193;SDS011;49289;51.670;5.624;2022-12-29T08:53:55;8.30;;;1.80;;
63193;SDS011;49289;51.670;5.624;2022-12-29T08:55:43;8.70;;;1.80;;
63193;SDS011;49289;51.670;5.624;2022-12-29T08:57:30;7.40;;;1.90;;
63193;SDS011;49289;51.670;5.624;2022-12-29T08:59:17;5.20;;;1.60;;
63193;SDS011;49289;51.670;5.624;2022-12-29T09:01:05;5.60;;;1.60;;
63193;SDS011;49289;51.670;5.624;2022-12-29T09:02:54;7.00;;;1.40;;
63193;SDS011;49289;51.670;5.624;2022-12-29T09:04:41;8.00;;;1.70;;
63193;SDS011;49289;51.670;5.624;2022-12-29T09:06:29;10.50;;;2.00;;
63193;SDS011;49289;51.670;5.624;2022-12-29T09:08:16;8.60;;;1.70;;
63193;SDS011;49289;51.670;5.624;2022-12-29T09:10:03;5.70;;;1.70;;
63193;SDS011;49289;51.670;5.624;2022-12-29T09:11:51;6.80;;;1.40;;
63193;SDS011;49289;51.670;5.624;2022-12-29T09:13:40;8.00;;;1.60;;
63193;SDS011;49289;51.670;5.624;2022-12-29T09:15:28;6.40;;;1.40;;
63193;SDS011;49289;51.670;5.624;2022-12-29T09:17:16;7.40;;;1.40;;
63193;SDS011;49289;51.670;5.624;2022-12-29T09:19:03;4.80;;;1.40;;
63193;SDS011;49289;51.670;5.624;2022-12-29T09:20:50;6.90;;;1.70;;
63193;SDS011;49289;51.670;5.624;2022-12-29T09:22:42;7.10;;;1.60;;
63193;SDS011;49289;51.670;5.624;2022-12-29T09:24:29;7.30;;;1.50;;
63193;SDS011;49289;51.670;5.624;2022-12-29T09:26:16;6.70;;;1.80;;
63193;SDS011;49289;51.670;5.624;2022-12-29T09:28:03;8.20;;;1.40;;
63193;SDS011;49289;51.670;5.624;2022-12-29T09:29:51;3.90;;;1.30;;
63193;SDS011;49289;51.670;5.624;2022-12-29T09:31:39;4.10;;;1.50;;
63193;SDS011;49289;51.670;5.624;2022-12-29T09:33:28;7.60;;;2.00;;
63193;SDS011;49289;51.670;5.624;2022-12-29T09:35:16;6.40;;;1.70;;
63193;SDS011;49289;51.670;5.624;2022-12-29T09:37:04;5.90;;;1.50;;
63193;SDS011;49289;51.670;5.624;2022-12-29T09:38:51;7.00;;;1.60;;
63193;SDS011;49289;51.670;5.624;2022-12-29T09:40:38;6.60;;;1.80;;
63193;SDS011;49289;51.670;5.624;2022-12-29T09:42:29;4.90;;;1.60;;
63193;SDS011;49289;51.670;5.624;2022-12-29T09:44:18;6.90;;;1.60;;
63193;SDS011;49289;51.670;5.624;2022-12-29T09:46:07;6.80;;;1.60;;
63193;SDS011;49289;51.670;5.624;2022-12-29T09:47:54;5.30;;;1.50;;
63193;SDS011;49289;51.670;5.624;2022-12-29T09:49:42;6.50;;;2.00;;
63193;SDS011;49289;51.670;5.624;2022-12-29T09:51:28;8.80;;;1.80;;
63193;SDS011;49289;51.670;5.624;2022-12-29T09:53:17;8.10;;;1.60;;
63193;SDS011;49289;51.670;5.624;2022-12-29T09:55:05;4.80;;;1.20;;
63193;SDS011;49289;51.670;5.624;2022-12-29T09:56:53;6.50;;;1.60;;
63193;SDS011;49289;51.670;5.624;2022-12-29T09:58:41;3.10;;;1.30;;
63193;SDS011;49289;51.670;5.624;2022-12-29T10:00:28;5.60;;;1.30;;
63193;SDS011;49289;51.670;5.624;2022-12-29T10:02:21;9.10;;;1.50;;
63193;SDS011;49289;51.670;5.624;2022-12-29T10:04:15;6.50;;;1.60;;
63193;SDS011;49289;51.670;5.624;2022-12-29T10:06:04;8.20;;;1.70;;
63193;SDS011;49289;51.670;5.624;2022-12-29T10:07:52;7.10;;;1.50;;
63193;SDS011;49289;51.670;5.624;2022-12-29T10:09:41;6.50;;;1.50;;
63193;SDS011;49289;51.670;5.624;2022-12-29T10:11:29;5.50;;;1.50;;
63193;SDS011;49289;51.670;5.624;2022-12-29T10:13:23;6.10;;;1.50;;
63193;SDS011;49289;51.670;5.624;2022-12-29T10:15:17;4.70;;;1.40;;
63193;SDS011;49289;51.670;5.624;2022-12-29T10:17:04;7.00;;;1.40;;
63193;SDS011;49289;51.670;5.624;2022-12-29T10:18:57;6.60;;;1.40;;
63193;SDS011;49289;51.670;5.624;2022-12-29T10:20:53;6.30;;;1.60;;
63193;SDS011;49289;51.670;5.624;2022-12-29T10:22:44;6.00;;;1.60;;
63193;SDS011;49289;51.670;5.624;2022-12-29T10:24:32;3.90;;;1.40;;
63193;SDS011;49289;51.670;5.624;2022-12-29T10:26:20;7.10;;;1.50;;
63193;SDS011;49289;51.670;5.624;2022-12-29T10:28:10;8.10;;;1.70;;
63193;SDS011;49289;51.670;5.624;2022-12-29T10:29:57;4.40;;;1.30;;
63193;SDS011;49289;51.670;5.624;2022-12-29T10:31:46;6.80;;;1.30;;
63193;SDS011;49289;51.670;5.624;2022-12-29T10:33:34;7.40;;;1.70;;
63193;SDS011;49289;51.670;5.624;2022-12-29T10:35:22;9.00;;;1.90;;
63193;SDS011;49289;51.670;5.624;2022-12-29T10:37:09;7.30;;;1.80;;
63193;SDS011;49289;51.670;5.624;2022-12-29T10:38:58;7.80;;;1.80;;
63193;SDS011;49289;51.670;5.624;2022-12-29T10:40:47;6.80;;;1.50;;
63193;SDS011;49289;51.670;5.624;2022-12-29T10:42:37;7.20;;;1.70;;
63193;SDS011;49289;51.670;5.624;2022-12-29T10:44:26;4.70;;;1.50;;
63193;SDS011;49289;51.670;5.624;2022-12-29T10:46:14;7.30;;;1.70;;
63193;SDS011;49289;51.670;5.624;2022-12-29T10:48:03;4.80;;;1.40;;
63193;SDS011;49289;51.670;5.624;2022-12-29T10:49:50;10.80;;;2.00;;
63193;SDS011;49289;51.670;5.624;2022-12-29T10:51:38;8.40;;;2.00;;
63193;SDS011;49289;51.670;5.624;2022-12-29T10:53:25;8.30;;;1.90;;
63193;SDS011;49289;51.670;5.624;2022-12-29T10:55:13;7.20;;;1.80;;